UAE801 OMDB-OEJN
Flight info
| Callsign | UAE801 |
|---|---|
| Flight time | 2h 34m |
| Altitude | 40000 |
| Route | KUTLI L519 ATUDO M318 GOLGU M550 RIBOT DCT MIGMA DCT ITRUX Y511 ASMIS T218 IMGUT M309 VEMEM |
| Aircraft | A388/J-SADE2E3FGHIJ3J4J5M1RWXY/LB1D1 |
Departure
| Time | 2026-04-26 10:47 |
|---|---|
| Airport | Dubai International Airport (OMDB) |
Arrival
| Time | 2026-04-26 13:21 |
|---|---|
| Airport | King Abdulaziz International Airport (OEJN) |
| Time | Latitude | Longitude | Altitude | Speed | Heading |
|---|---|---|---|---|---|
| 2026-04-26 09:48 | 25.25063 | 55.35985 | 27 ft | 0 kts | 211° |
| 2026-04-26 10:32 | 25.25070 | 55.35990 | 26 ft | 4 kts | 211° |
| 2026-04-26 10:32 | 25.25093 | 55.36005 | 25 ft | 4 kts | 210° |
| 2026-04-26 10:32 | 25.25117 | 55.36017 | 24 ft | 4 kts | 190° |
| 2026-04-26 10:33 | 25.25143 | 55.36016 | 25 ft | 4 kts | 156° |
| 2026-04-26 10:33 | 25.25163 | 55.36000 | 38 ft | 3 kts | 123° |
| 2026-04-26 10:33 | 25.25164 | 55.35997 | 40 ft | 0 kts | 122° |
| 2026-04-26 10:34 | 25.25164 | 55.35998 | 40 ft | 0 kts | 122° |
| 2026-04-26 10:36 | 25.25163 | 55.36000 | 38 ft | 2 kts | 122° |
| 2026-04-26 10:36 | 25.25143 | 55.36034 | 25 ft | 9 kts | 122° |
| 2026-04-26 10:36 | 25.25099 | 55.36112 | 27 ft | 15 kts | 122° |
| 2026-04-26 10:37 | 25.25033 | 55.36229 | 27 ft | 19 kts | 122° |
| 2026-04-26 10:37 | 25.24989 | 55.36372 | 27 ft | 21 kts | 94° |
| 2026-04-26 10:37 | 25.24966 | 55.36534 | 27 ft | 20 kts | 115° |
| 2026-04-26 10:37 | 25.24905 | 55.36646 | 27 ft | 20 kts | 116° |
| 2026-04-26 10:38 | 25.24858 | 55.36811 | 27 ft | 24 kts | 108° |
| 2026-04-26 10:38 | 25.24777 | 55.36994 | 27 ft | 28 kts | 122° |
| 2026-04-26 10:38 | 25.24682 | 55.37156 | 27 ft | 26 kts | 121° |
| 2026-04-26 10:38 | 25.24594 | 55.37316 | 27 ft | 20 kts | 121° |
| 2026-04-26 10:39 | 25.24529 | 55.37432 | 27 ft | 19 kts | 122° |
| 2026-04-26 10:39 | 25.24470 | 55.37535 | 27 ft | 12 kts | 122° |
| 2026-04-26 10:39 | 25.24425 | 55.37616 | 27 ft | 12 kts | 122° |
| 2026-04-26 10:39 | 25.24411 | 55.37641 | 27 ft | 0 kts | 122° |
| 2026-04-26 10:43 | 25.24411 | 55.37642 | 27 ft | 0 kts | 121° |
| 2026-04-26 10:43 | 25.24410 | 55.37644 | 27 ft | 2 kts | 121° |
| 2026-04-26 10:43 | 25.24381 | 55.37696 | 27 ft | 11 kts | 121° |
| 2026-04-26 10:43 | 25.24340 | 55.37790 | 27 ft | 14 kts | 85° |
| 2026-04-26 10:44 | 25.24376 | 55.37849 | 27 ft | 15 kts | 37° |
| 2026-04-26 10:44 | 25.24470 | 55.37921 | 27 ft | 18 kts | 34° |
| 2026-04-26 10:44 | 25.24576 | 55.38001 | 27 ft | 16 kts | 35° |
| 2026-04-26 10:44 | 25.24632 | 55.38042 | 27 ft | 9 kts | 32° |
| 2026-04-26 10:45 | 25.24641 | 55.38048 | 27 ft | 0 kts | 32° |
| 2026-04-26 10:45 | 25.24656 | 55.38059 | 27 ft | 6 kts | 32° |
| 2026-04-26 10:45 | 25.24706 | 55.38092 | 27 ft | 11 kts | 30° |
| 2026-04-26 10:46 | 25.24769 | 55.38091 | 27 ft | 9 kts | 321° |
| 2026-04-26 10:46 | 25.24803 | 55.38033 | 27 ft | 10 kts | 301° |
| 2026-04-26 10:46 | 25.24928 | 55.37808 | 27 ft | 85 kts | 301° |
| 2026-04-26 10:46 | 25.25384 | 55.36982 | 131 ft | 154 kts | 301° |
| 2026-04-26 10:47 | 25.25984 | 55.35941 | 899 ft | 167 kts | 302° |
| 2026-04-26 10:47 | 25.26631 | 55.34816 | 1769 ft | 173 kts | 304° |
| 2026-04-26 10:47 | 25.27276 | 55.33646 | 2534 ft | 182 kts | 302° |
| 2026-04-26 10:47 | 25.27946 | 55.32415 | 2834 ft | 201 kts | 302° |
| 2026-04-26 10:48 | 25.28727 | 55.30988 | 3284 ft | 225 kts | 301° |
| 2026-04-26 10:48 | 25.29196 | 55.29295 | 4075 ft | 238 kts | 270° |
| 2026-04-26 10:48 | 25.28793 | 55.27542 | 5165 ft | 238 kts | 246° |
| 2026-04-26 10:48 | 25.28068 | 55.25899 | 6198 ft | 239 kts | 247° |
| 2026-04-26 10:49 | 25.27360 | 55.24238 | 7148 ft | 240 kts | 245° |
| 2026-04-26 10:49 | 25.26635 | 55.22559 | 8043 ft | 243 kts | 245° |
| 2026-04-26 10:49 | 25.25905 | 55.20861 | 8977 ft | 246 kts | 245° |
| 2026-04-26 10:49 | 25.25169 | 55.19141 | 9896 ft | 249 kts | 245° |
| 2026-04-26 10:50 | 25.24425 | 55.17394 | 10754 ft | 253 kts | 244° |
| 2026-04-26 10:50 | 25.23911 | 55.16231 | 11356 ft | 255 kts | 240° |
| 2026-04-26 10:50 | 25.22690 | 55.13903 | 12141 ft | 279 kts | 239° |
| 2026-04-26 10:50 | 25.21687 | 55.11986 | 12478 ft | 302 kts | 239° |
| 2026-04-26 10:51 | 25.20579 | 55.09863 | 12614 ft | 324 kts | 240° |
| 2026-04-26 10:51 | 25.18692 | 55.05083 | 12999 ft | 353 kts | 247° |
| 2026-04-26 10:51 | 25.17755 | 55.02552 | 13540 ft | 356 kts | 246° |
| 2026-04-26 10:52 | 25.16812 | 55.00022 | 14058 ft | 359 kts | 247° |
| 2026-04-26 10:52 | 25.15844 | 54.97471 | 14552 ft | 360 kts | 243° |
| 2026-04-26 10:52 | 25.14464 | 54.95234 | 15029 ft | 361 kts | 224° |
| 2026-04-26 10:52 | 25.12403 | 54.93560 | 15525 ft | 364 kts | 205° |
| 2026-04-26 10:53 | 25.10012 | 54.92742 | 15987 ft | 368 kts | 187° |
| 2026-04-26 10:53 | 25.07434 | 54.92683 | 16409 ft | 372 kts | 180° |
| 2026-04-26 10:53 | 25.04836 | 54.92719 | 16893 ft | 373 kts | 181° |
| 2026-04-26 10:54 | 24.99604 | 54.92926 | 17752 ft | 379 kts | 178° |
| 2026-04-26 10:54 | 24.96918 | 54.93116 | 18186 ft | 381 kts | 178° |
| 2026-04-26 10:54 | 24.94300 | 54.93295 | 18558 ft | 383 kts | 178° |
| 2026-04-26 10:54 | 24.91626 | 54.93478 | 18933 ft | 385 kts | 178° |
| 2026-04-26 10:55 | 24.88936 | 54.93605 | 19272 ft | 386 kts | 185° |
| 2026-04-26 10:55 | 24.86277 | 54.93218 | 19621 ft | 385 kts | 196° |
| 2026-04-26 10:55 | 24.83754 | 54.92247 | 19964 ft | 384 kts | 207° |
| 2026-04-26 10:55 | 24.81399 | 54.90842 | 20268 ft | 386 kts | 210° |
| 2026-04-26 10:56 | 24.79035 | 54.89411 | 20583 ft | 388 kts | 210° |
| 2026-04-26 10:56 | 24.76662 | 54.87996 | 20921 ft | 389 kts | 210° |
| 2026-04-26 10:56 | 24.74277 | 54.86578 | 21222 ft | 391 kts | 210° |
| 2026-04-26 10:56 | 24.71908 | 54.85168 | 21528 ft | 393 kts | 210° |
| 2026-04-26 10:57 | 24.69494 | 54.83730 | 21835 ft | 395 kts | 210° |
| 2026-04-26 10:57 | 24.67127 | 54.82301 | 22117 ft | 397 kts | 211° |
| 2026-04-26 10:57 | 24.64731 | 54.80771 | 22431 ft | 398 kts | 212° |
| 2026-04-26 10:57 | 24.62367 | 54.79234 | 22724 ft | 400 kts | 212° |
| 2026-04-26 10:58 | 24.59924 | 54.77650 | 23009 ft | 402 kts | 212° |
| 2026-04-26 10:58 | 24.57536 | 54.76112 | 23282 ft | 404 kts | 212° |
| 2026-04-26 10:58 | 24.55103 | 54.74551 | 23549 ft | 406 kts | 212° |
| 2026-04-26 10:58 | 24.52661 | 54.72989 | 23784 ft | 407 kts | 212° |
| 2026-04-26 10:59 | 24.50210 | 54.71417 | 24025 ft | 408 kts | 212° |
| 2026-04-26 10:59 | 24.47734 | 54.69827 | 24251 ft | 410 kts | 213° |
| 2026-04-26 10:59 | 24.45259 | 54.68237 | 24490 ft | 411 kts | 213° |
| 2026-04-26 10:59 | 24.42786 | 54.66650 | 24728 ft | 413 kts | 213° |
| 2026-04-26 11:00 | 24.40320 | 54.65072 | 24949 ft | 414 kts | 212° |
| 2026-04-26 11:00 | 24.37827 | 54.63478 | 25177 ft | 416 kts | 212° |
| 2026-04-26 11:00 | 24.35320 | 54.61877 | 25413 ft | 417 kts | 212° |
| 2026-04-26 11:00 | 24.32802 | 54.60270 | 25656 ft | 419 kts | 212° |
| 2026-04-26 11:01 | 24.30275 | 54.58657 | 25895 ft | 420 kts | 212° |
| 2026-04-26 11:01 | 24.27759 | 54.57001 | 26141 ft | 421 kts | 216° |
| 2026-04-26 11:01 | 24.25446 | 54.55047 | 26348 ft | 420 kts | 227° |
| 2026-04-26 11:01 | 24.23530 | 54.52629 | 26602 ft | 420 kts | 235° |
| 2026-04-26 11:02 | 24.21906 | 54.49969 | 26885 ft | 421 kts | 240° |
| 2026-04-26 11:02 | 24.20416 | 54.47192 | 27162 ft | 422 kts | 242° |
| 2026-04-26 11:02 | 24.18976 | 54.44373 | 27464 ft | 424 kts | 242° |
| 2026-04-26 11:02 | 24.17538 | 54.41534 | 27762 ft | 426 kts | 242° |
| 2026-04-26 11:03 | 24.16089 | 54.38686 | 28092 ft | 428 kts | 242° |
| 2026-04-26 11:03 | 24.14631 | 54.35835 | 28397 ft | 430 kts | 242° |
| 2026-04-26 11:03 | 24.13160 | 54.32972 | 28713 ft | 432 kts | 242° |
| 2026-04-26 11:03 | 24.11682 | 54.30100 | 29033 ft | 434 kts | 242° |
| 2026-04-26 11:04 | 24.10211 | 54.27246 | 29338 ft | 436 kts | 241° |
| 2026-04-26 11:04 | 24.08709 | 54.24333 | 29658 ft | 438 kts | 241° |
| 2026-04-26 11:04 | 24.07203 | 54.21416 | 29959 ft | 441 kts | 241° |
| 2026-04-26 11:04 | 24.05692 | 54.18490 | 30257 ft | 442 kts | 241° |
| 2026-04-26 11:05 | 24.04174 | 54.15553 | 30576 ft | 443 kts | 241° |
| 2026-04-26 11:05 | 24.02655 | 54.12615 | 30883 ft | 444 kts | 241° |
| 2026-04-26 11:05 | 24.01132 | 54.09672 | 31163 ft | 445 kts | 241° |
| 2026-04-26 11:05 | 23.99606 | 54.06723 | 31438 ft | 447 kts | 241° |
| 2026-04-26 11:06 | 23.98063 | 54.03766 | 31715 ft | 448 kts | 241° |
| 2026-04-26 11:06 | 23.97010 | 54.01775 | 31896 ft | 449 kts | 241° |
| 2026-04-26 11:06 | 23.94949 | 53.97890 | 32245 ft | 451 kts | 241° |
| 2026-04-26 11:06 | 23.93371 | 53.94916 | 32487 ft | 452 kts | 241° |
| 2026-04-26 11:07 | 23.91790 | 53.91931 | 32722 ft | 454 kts | 241° |
| 2026-04-26 11:07 | 23.90202 | 53.88935 | 32973 ft | 456 kts | 241° |
| 2026-04-26 11:07 | 23.88611 | 53.85932 | 33215 ft | 457 kts | 241° |
| 2026-04-26 11:07 | 23.87019 | 53.82929 | 33462 ft | 459 kts | 241° |
| 2026-04-26 11:08 | 23.85413 | 53.79902 | 33687 ft | 460 kts | 241° |
| 2026-04-26 11:08 | 23.83777 | 53.76818 | 33906 ft | 462 kts | 241° |
| 2026-04-26 11:08 | 23.82183 | 53.73817 | 34102 ft | 464 kts | 242° |
| 2026-04-26 11:08 | 23.80581 | 53.70803 | 34298 ft | 465 kts | 242° |
| 2026-04-26 11:09 | 23.78955 | 53.67743 | 34524 ft | 465 kts | 242° |
| 2026-04-26 11:09 | 23.77334 | 53.64698 | 34823 ft | 464 kts | 242° |
| 2026-04-26 11:09 | 23.75713 | 53.61653 | 35128 ft | 463 kts | 243° |
| 2026-04-26 11:09 | 23.74093 | 53.58614 | 35409 ft | 462 kts | 243° |
| 2026-04-26 11:10 | 23.72448 | 53.55528 | 35713 ft | 461 kts | 243° |
| 2026-04-26 11:10 | 23.70839 | 53.52511 | 35981 ft | 460 kts | 243° |
| 2026-04-26 11:10 | 23.69232 | 53.49494 | 36254 ft | 458 kts | 244° |
| 2026-04-26 11:10 | 23.67628 | 53.46465 | 36512 ft | 457 kts | 244° |
| 2026-04-26 11:11 | 23.66060 | 53.43502 | 36781 ft | 456 kts | 244° |
| 2026-04-26 11:11 | 23.64472 | 53.40501 | 37054 ft | 455 kts | 245° |
| 2026-04-26 11:11 | 23.62888 | 53.37514 | 37306 ft | 453 kts | 245° |
| 2026-04-26 11:11 | 23.61287 | 53.34496 | 37562 ft | 452 kts | 245° |
| 2026-04-26 11:12 | 23.59718 | 53.31543 | 37790 ft | 451 kts | 245° |
| 2026-04-26 11:12 | 23.58145 | 53.28581 | 38010 ft | 450 kts | 245° |
| 2026-04-26 11:12 | 23.56575 | 53.25630 | 38222 ft | 450 kts | 245° |
| 2026-04-26 11:12 | 23.55005 | 53.22680 | 38411 ft | 449 kts | 246° |
| 2026-04-26 11:13 | 23.53438 | 53.19735 | 38598 ft | 448 kts | 246° |
| 2026-04-26 11:13 | 23.51869 | 53.16791 | 38740 ft | 448 kts | 246° |
| 2026-04-26 11:13 | 23.48737 | 53.10917 | 38982 ft | 448 kts | 246° |
| 2026-04-26 11:14 | 23.46129 | 53.06030 | 39187 ft | 448 kts | 246° |
| 2026-04-26 11:14 | 23.44561 | 53.03096 | 39299 ft | 448 kts | 246° |
| 2026-04-26 11:14 | 23.42994 | 53.00164 | 39410 ft | 448 kts | 246° |
| 2026-04-26 11:15 | 23.41423 | 52.97226 | 39523 ft | 448 kts | 246° |
| 2026-04-26 11:15 | 23.39856 | 52.94289 | 39634 ft | 448 kts | 246° |
| 2026-04-26 11:15 | 23.36816 | 52.88355 | 39841 ft | 447 kts | 247° |
| 2026-04-26 11:16 | 23.33806 | 52.82446 | 39878 ft | 451 kts | 247° |
| 2026-04-26 11:16 | 23.30728 | 52.76443 | 39881 ft | 454 kts | 247° |
| 2026-04-26 11:17 | 23.27658 | 52.70485 | 39879 ft | 452 kts | 247° |
| 2026-04-26 11:17 | 23.24580 | 52.64511 | 39873 ft | 452 kts | 247° |
| 2026-04-26 11:18 | 23.21501 | 52.58542 | 39875 ft | 452 kts | 247° |
| 2026-04-26 11:18 | 23.18515 | 52.52529 | 39870 ft | 449 kts | 251° |
| 2026-04-26 11:19 | 23.16289 | 52.46299 | 39870 ft | 444 kts | 256° |
| 2026-04-26 11:19 | 23.14292 | 52.39939 | 39866 ft | 444 kts | 256° |
| 2026-04-26 11:20 | 23.12614 | 52.34655 | 39869 ft | 445 kts | 256° |
| 2026-04-26 11:20 | 23.10254 | 52.27225 | 39869 ft | 445 kts | 256° |
| 2026-04-26 11:21 | 23.08242 | 52.20898 | 39880 ft | 445 kts | 256° |
| 2026-04-26 11:21 | 23.06216 | 52.14536 | 39878 ft | 446 kts | 256° |
| 2026-04-26 11:22 | 23.04180 | 52.08155 | 39878 ft | 446 kts | 256° |
| 2026-04-26 11:22 | 23.02157 | 52.01823 | 39877 ft | 446 kts | 256° |
| 2026-04-26 11:23 | 23.00121 | 51.95462 | 39879 ft | 446 kts | 256° |
| 2026-04-26 11:23 | 22.98081 | 51.89096 | 39874 ft | 446 kts | 256° |
| 2026-04-26 11:24 | 22.96038 | 51.82731 | 39873 ft | 446 kts | 256° |
| 2026-04-26 11:24 | 22.93995 | 51.76375 | 39877 ft | 446 kts | 256° |
| 2026-04-26 11:25 | 22.91945 | 51.70007 | 39872 ft | 447 kts | 256° |
| 2026-04-26 11:25 | 22.89890 | 51.63637 | 39869 ft | 447 kts | 256° |
| 2026-04-26 11:26 | 22.87844 | 51.57300 | 39884 ft | 448 kts | 256° |
| 2026-04-26 11:26 | 22.85860 | 51.50903 | 39881 ft | 445 kts | 259° |
| 2026-04-26 11:27 | 22.84625 | 51.44368 | 39881 ft | 441 kts | 267° |
| 2026-04-26 11:27 | 22.84242 | 51.37763 | 39881 ft | 437 kts | 273° |
| 2026-04-26 11:28 | 22.84220 | 51.31163 | 39831 ft | 439 kts | 272° |
| 2026-04-26 11:28 | 22.84173 | 51.24531 | 39877 ft | 442 kts | 272° |
| 2026-04-26 11:29 | 22.84126 | 51.17846 | 39881 ft | 447 kts | 272° |
| 2026-04-26 11:29 | 22.84076 | 51.11056 | 39879 ft | 453 kts | 272° |
| 2026-04-26 11:30 | 22.84030 | 51.05382 | 39880 ft | 448 kts | 272° |
| 2026-04-26 11:30 | 22.83965 | 50.97472 | 39880 ft | 451 kts | 272° |
| 2026-04-26 11:31 | 22.83905 | 50.90683 | 39879 ft | 450 kts | 272° |
| 2026-04-26 11:31 | 22.83843 | 50.83893 | 39876 ft | 450 kts | 272° |
| 2026-04-26 11:32 | 22.83778 | 50.77098 | 39869 ft | 450 kts | 272° |
| 2026-04-26 11:32 | 22.83710 | 50.70316 | 39877 ft | 450 kts | 271° |
| 2026-04-26 11:33 | 22.83639 | 50.63535 | 39874 ft | 450 kts | 271° |
| 2026-04-26 11:33 | 22.83566 | 50.56747 | 39878 ft | 450 kts | 271° |
| 2026-04-26 11:34 | 22.83489 | 50.49972 | 39881 ft | 450 kts | 271° |
| 2026-04-26 11:34 | 22.83411 | 50.43258 | 39913 ft | 456 kts | 271° |
| 2026-04-26 11:35 | 22.83328 | 50.36406 | 39878 ft | 451 kts | 271° |
| 2026-04-26 11:35 | 22.83256 | 50.30789 | 39876 ft | 447 kts | 271° |
| 2026-04-26 11:36 | 22.83156 | 50.22943 | 39882 ft | 449 kts | 271° |
| 2026-04-26 11:36 | 22.83066 | 50.16230 | 39878 ft | 448 kts | 271° |
| 2026-04-26 11:37 | 22.82972 | 50.09461 | 39872 ft | 448 kts | 271° |
| 2026-04-26 11:37 | 22.82876 | 50.02699 | 39880 ft | 448 kts | 271° |
| 2026-04-26 11:38 | 22.82777 | 49.95937 | 39879 ft | 448 kts | 271° |
| 2026-04-26 11:38 | 22.82675 | 49.89192 | 39880 ft | 448 kts | 271° |
| 2026-04-26 11:39 | 22.82572 | 49.82488 | 39880 ft | 447 kts | 271° |
| 2026-04-26 11:39 | 22.82464 | 49.75736 | 39882 ft | 447 kts | 271° |
| 2026-04-26 11:40 | 22.82354 | 49.68995 | 39882 ft | 447 kts | 271° |
| 2026-04-26 11:40 | 22.82241 | 49.62255 | 39876 ft | 447 kts | 271° |
| 2026-04-26 11:42 | 22.81761 | 49.35326 | 39881 ft | 446 kts | 271° |
| 2026-04-26 11:43 | 22.81635 | 49.28639 | 39877 ft | 445 kts | 270° |
| 2026-04-26 11:43 | 22.81506 | 49.21935 | 39879 ft | 445 kts | 270° |
| 2026-04-26 11:44 | 22.81374 | 49.15224 | 39881 ft | 445 kts | 270° |
| 2026-04-26 11:44 | 22.81238 | 49.08495 | 39879 ft | 445 kts | 270° |
| 2026-04-26 11:45 | 22.81101 | 49.01800 | 39877 ft | 444 kts | 270° |
| 2026-04-26 11:45 | 22.80960 | 48.95097 | 39882 ft | 444 kts | 270° |
| 2026-04-26 11:46 | 22.80817 | 48.88404 | 39880 ft | 444 kts | 270° |
| 2026-04-26 11:46 | 22.80673 | 48.81754 | 39885 ft | 443 kts | 270° |
| 2026-04-26 11:47 | 22.80524 | 48.75072 | 39884 ft | 443 kts | 270° |
| 2026-04-26 11:47 | 22.80373 | 48.68393 | 39885 ft | 443 kts | 270° |
| 2026-04-26 11:48 | 22.80219 | 48.61714 | 39882 ft | 442 kts | 270° |
| 2026-04-26 11:48 | 22.80064 | 48.55083 | 39882 ft | 442 kts | 270° |
| 2026-04-26 11:49 | 22.79905 | 48.48416 | 39885 ft | 442 kts | 270° |
| 2026-04-26 11:49 | 22.79743 | 48.41754 | 39884 ft | 442 kts | 270° |
| 2026-04-26 11:50 | 22.79578 | 48.35094 | 39884 ft | 442 kts | 270° |
| 2026-04-26 11:50 | 22.79411 | 48.28437 | 39887 ft | 442 kts | 270° |
| 2026-04-26 11:51 | 22.79242 | 48.21789 | 39881 ft | 441 kts | 270° |
| 2026-04-26 11:51 | 22.79069 | 48.15129 | 39881 ft | 441 kts | 270° |
| 2026-04-26 11:52 | 22.78923 | 48.09604 | 39881 ft | 441 kts | 270° |
| 2026-04-26 11:52 | 22.78716 | 48.01864 | 39883 ft | 441 kts | 270° |
| 2026-04-26 11:53 | 22.78535 | 47.95220 | 39888 ft | 441 kts | 269° |
| 2026-04-26 11:54 | 22.78259 | 47.85250 | 39892 ft | 441 kts | 269° |
| 2026-04-26 11:54 | 22.78072 | 47.78610 | 39894 ft | 441 kts | 269° |
| 2026-04-26 11:55 | 22.77882 | 47.71975 | 39894 ft | 441 kts | 269° |
| 2026-04-26 11:55 | 22.77689 | 47.65337 | 39899 ft | 440 kts | 269° |
| 2026-04-26 11:56 | 22.77527 | 47.59820 | 39893 ft | 440 kts | 269° |
| 2026-04-26 11:56 | 22.77296 | 47.52106 | 39901 ft | 440 kts | 269° |
| 2026-04-26 11:57 | 22.77129 | 47.46581 | 39900 ft | 440 kts | 269° |
| 2026-04-26 11:57 | 22.76925 | 47.39935 | 39901 ft | 440 kts | 269° |
| 2026-04-26 11:58 | 22.76719 | 47.33287 | 39908 ft | 440 kts | 269° |
| 2026-04-26 11:58 | 22.76514 | 47.26705 | 39912 ft | 440 kts | 269° |
| 2026-04-26 11:59 | 22.76305 | 47.20061 | 39914 ft | 440 kts | 269° |
| 2026-04-26 11:59 | 22.76544 | 47.13451 | 39913 ft | 439 kts | 275° |
| 2026-04-26 12:00 | 22.77082 | 47.06878 | 39918 ft | 439 kts | 275° |
| 2026-04-26 12:00 | 22.77592 | 47.00450 | 39915 ft | 439 kts | 275° |
| 2026-04-26 12:01 | 22.78103 | 46.93941 | 39925 ft | 439 kts | 275° |
| 2026-04-26 12:01 | 22.78620 | 46.87334 | 39928 ft | 439 kts | 275° |
| 2026-04-26 12:02 | 22.79129 | 46.80783 | 39930 ft | 439 kts | 275° |
| 2026-04-26 12:02 | 22.79640 | 46.74187 | 39935 ft | 439 kts | 275° |
| 2026-04-26 12:03 | 22.80148 | 46.67589 | 39940 ft | 439 kts | 275° |
| 2026-04-26 12:03 | 22.80656 | 46.60959 | 39942 ft | 439 kts | 275° |
| 2026-04-26 12:04 | 22.81155 | 46.54398 | 39945 ft | 439 kts | 275° |
| 2026-04-26 12:04 | 22.81655 | 46.47795 | 39942 ft | 439 kts | 275° |
| 2026-04-26 12:05 | 22.82152 | 46.41197 | 39942 ft | 439 kts | 275° |
| 2026-04-26 12:05 | 22.82642 | 46.34634 | 39943 ft | 439 kts | 275° |
| 2026-04-26 12:06 | 22.83127 | 46.28082 | 39945 ft | 438 kts | 275° |
| 2026-04-26 12:06 | 22.83616 | 46.21442 | 39940 ft | 438 kts | 275° |
| 2026-04-26 12:07 | 22.84100 | 46.14842 | 39938 ft | 438 kts | 275° |
| 2026-04-26 12:07 | 22.84566 | 46.08418 | 39937 ft | 438 kts | 275° |
| 2026-04-26 12:08 | 22.85042 | 46.01863 | 39934 ft | 438 kts | 275° |
| 2026-04-26 12:08 | 22.85517 | 45.95263 | 39929 ft | 438 kts | 274° |
| 2026-04-26 12:09 | 22.85988 | 45.88679 | 39927 ft | 437 kts | 274° |
| 2026-04-26 12:09 | 22.86456 | 45.82101 | 39922 ft | 437 kts | 274° |
| 2026-04-26 12:10 | 22.86918 | 45.75576 | 39919 ft | 437 kts | 274° |
| 2026-04-26 12:10 | 22.87380 | 45.69001 | 39916 ft | 436 kts | 274° |
| 2026-04-26 12:11 | 22.87838 | 45.62453 | 39921 ft | 436 kts | 274° |
| 2026-04-26 12:11 | 22.88294 | 45.55897 | 39918 ft | 436 kts | 274° |
| 2026-04-26 12:12 | 22.88744 | 45.49375 | 39917 ft | 435 kts | 274° |
| 2026-04-26 12:12 | 22.89194 | 45.42825 | 39919 ft | 435 kts | 274° |
| 2026-04-26 12:13 | 22.89642 | 45.36271 | 39918 ft | 435 kts | 274° |
| 2026-04-26 12:13 | 22.90084 | 45.29747 | 39917 ft | 435 kts | 274° |
| 2026-04-26 12:14 | 22.90524 | 45.23229 | 39920 ft | 435 kts | 274° |
| 2026-04-26 12:14 | 22.90962 | 45.16687 | 39921 ft | 434 kts | 274° |
| 2026-04-26 12:15 | 22.91396 | 45.10183 | 39917 ft | 434 kts | 274° |
| 2026-04-26 12:15 | 22.91832 | 45.03609 | 39915 ft | 434 kts | 274° |
| 2026-04-26 12:16 | 22.92259 | 44.97080 | 39905 ft | 433 kts | 274° |
| 2026-04-26 12:16 | 22.92683 | 44.90581 | 39907 ft | 433 kts | 274° |
| 2026-04-26 12:17 | 22.93106 | 44.84064 | 39906 ft | 433 kts | 274° |
| 2026-04-26 12:17 | 22.93526 | 44.77547 | 39901 ft | 433 kts | 274° |
| 2026-04-26 12:18 | 22.93943 | 44.71027 | 39904 ft | 433 kts | 274° |
| 2026-04-26 12:18 | 22.94101 | 44.64545 | 39897 ft | 433 kts | 268° |
| 2026-04-26 12:19 | 22.93794 | 44.57976 | 39899 ft | 433 kts | 268° |
| 2026-04-26 12:19 | 22.93516 | 44.51457 | 39895 ft | 433 kts | 268° |
| 2026-04-26 12:20 | 22.93236 | 44.44972 | 39893 ft | 433 kts | 268° |
| 2026-04-26 12:20 | 22.92947 | 44.38430 | 39891 ft | 433 kts | 268° |
| 2026-04-26 12:21 | 22.92655 | 44.31902 | 39892 ft | 433 kts | 268° |
| 2026-04-26 12:21 | 22.92362 | 44.25420 | 39890 ft | 433 kts | 268° |
| 2026-04-26 12:22 | 22.92064 | 44.18877 | 39887 ft | 433 kts | 268° |
| 2026-04-26 12:22 | 22.91764 | 44.12354 | 39884 ft | 433 kts | 268° |
| 2026-04-26 12:23 | 22.91461 | 44.05828 | 39889 ft | 433 kts | 268° |
| 2026-04-26 12:23 | 22.91157 | 43.99321 | 39893 ft | 434 kts | 268° |
| 2026-04-26 12:24 | 22.90849 | 43.92790 | 39899 ft | 434 kts | 268° |
| 2026-04-26 12:24 | 22.90538 | 43.86254 | 39898 ft | 434 kts | 268° |
| 2026-04-26 12:25 | 22.90066 | 43.76441 | 39905 ft | 434 kts | 268° |
| 2026-04-26 12:25 | 22.89748 | 43.69902 | 39905 ft | 434 kts | 268° |
| 2026-04-26 12:26 | 22.89427 | 43.63359 | 39912 ft | 434 kts | 268° |
| 2026-04-26 12:26 | 22.89105 | 43.56848 | 39912 ft | 434 kts | 268° |
| 2026-04-26 12:27 | 22.88779 | 43.50303 | 39918 ft | 434 kts | 268° |
| 2026-04-26 12:27 | 22.88450 | 43.43758 | 39926 ft | 434 kts | 268° |
| 2026-04-26 12:28 | 22.88118 | 43.37220 | 39931 ft | 434 kts | 268° |
| 2026-04-26 12:28 | 22.87784 | 43.30681 | 39930 ft | 433 kts | 268° |
| 2026-04-26 12:29 | 22.87448 | 43.24154 | 39935 ft | 433 kts | 268° |
| 2026-04-26 12:30 | 22.86942 | 43.14425 | 39937 ft | 433 kts | 268° |
| 2026-04-26 12:30 | 22.86600 | 43.07914 | 39937 ft | 432 kts | 268° |
| 2026-04-26 12:31 | 22.86083 | 42.98166 | 39936 ft | 431 kts | 267° |
| 2026-04-26 12:31 | 22.85735 | 42.91671 | 39943 ft | 431 kts | 267° |
| 2026-04-26 12:32 | 22.85444 | 42.86275 | 39939 ft | 431 kts | 267° |
| 2026-04-26 12:33 | 22.84916 | 42.76554 | 39940 ft | 430 kts | 267° |
| 2026-04-26 12:33 | 22.84560 | 42.70075 | 39945 ft | 430 kts | 267° |
| 2026-04-26 12:34 | 22.84202 | 42.63596 | 39945 ft | 430 kts | 267° |
| 2026-04-26 12:34 | 22.83841 | 42.57128 | 39950 ft | 429 kts | 267° |
| 2026-04-26 12:35 | 22.83481 | 42.50703 | 39954 ft | 429 kts | 267° |
| 2026-04-26 12:35 | 22.83113 | 42.44200 | 39958 ft | 429 kts | 267° |
| 2026-04-26 12:36 | 22.82748 | 42.37787 | 39967 ft | 429 kts | 267° |
| 2026-04-26 12:36 | 22.82377 | 42.31313 | 39972 ft | 428 kts | 267° |
| 2026-04-26 12:37 | 22.82005 | 42.24874 | 39975 ft | 428 kts | 267° |
| 2026-04-26 12:37 | 22.81630 | 42.18426 | 39979 ft | 428 kts | 267° |
| 2026-04-26 12:38 | 22.81254 | 42.12011 | 39980 ft | 428 kts | 267° |
| 2026-04-26 12:38 | 22.80874 | 42.05569 | 39984 ft | 428 kts | 267° |
| 2026-04-26 12:39 | 22.80492 | 41.99128 | 39990 ft | 428 kts | 267° |
| 2026-04-26 12:39 | 22.80108 | 41.92681 | 39989 ft | 428 kts | 267° |
| 2026-04-26 12:40 | 22.79595 | 41.86246 | 39991 ft | 428 kts | 264° |
| 2026-04-26 12:40 | 22.78986 | 41.79866 | 39993 ft | 429 kts | 265° |
| 2026-04-26 12:41 | 22.78380 | 41.73423 | 40007 ft | 429 kts | 265° |
| 2026-04-26 12:41 | 22.77764 | 41.66982 | 40009 ft | 429 kts | 265° |
| 2026-04-26 12:42 | 22.77148 | 41.60588 | 40018 ft | 429 kts | 265° |
| 2026-04-26 12:42 | 22.76526 | 41.54172 | 40021 ft | 429 kts | 265° |
| 2026-04-26 12:43 | 22.75896 | 41.47690 | 40024 ft | 429 kts | 265° |
| 2026-04-26 12:43 | 22.75283 | 41.41407 | 40021 ft | 430 kts | 265° |
| 2026-04-26 12:44 | 22.74580 | 41.34952 | 40020 ft | 430 kts | 262° |
| 2026-04-26 12:44 | 22.73211 | 41.28665 | 40023 ft | 432 kts | 255° |
| 2026-04-26 12:45 | 22.71112 | 41.22534 | 40020 ft | 434 kts | 251° |
| 2026-04-26 12:45 | 22.68899 | 41.16490 | 40020 ft | 435 kts | 251° |
| 2026-04-26 12:46 | 22.66672 | 41.10392 | 40024 ft | 435 kts | 251° |
| 2026-04-26 12:46 | 22.64432 | 41.04289 | 40027 ft | 436 kts | 251° |
| 2026-04-26 12:47 | 22.62181 | 40.98166 | 40020 ft | 437 kts | 251° |
| 2026-04-26 12:47 | 22.59931 | 40.92059 | 40021 ft | 437 kts | 251° |
| 2026-04-26 12:48 | 22.57671 | 40.85930 | 40024 ft | 437 kts | 251° |
| 2026-04-26 12:48 | 22.55425 | 40.79847 | 40022 ft | 438 kts | 251° |
| 2026-04-26 12:49 | 22.53161 | 40.73724 | 40027 ft | 438 kts | 250° |
| 2026-04-26 12:49 | 22.50891 | 40.67591 | 40032 ft | 438 kts | 250° |
| 2026-04-26 12:50 | 22.48624 | 40.61475 | 40041 ft | 438 kts | 250° |
| 2026-04-26 12:50 | 22.46365 | 40.55390 | 40051 ft | 438 kts | 250° |
| 2026-04-26 12:51 | 22.44088 | 40.49264 | 40054 ft | 438 kts | 250° |
| 2026-04-26 12:51 | 22.41810 | 40.43142 | 40058 ft | 438 kts | 250° |
| 2026-04-26 12:52 | 22.39533 | 40.37033 | 40066 ft | 438 kts | 250° |
| 2026-04-26 12:52 | 22.37253 | 40.30924 | 40064 ft | 438 kts | 250° |
| 2026-04-26 12:53 | 22.34973 | 40.24824 | 40060 ft | 438 kts | 250° |
| 2026-04-26 12:53 | 22.32690 | 40.18722 | 40056 ft | 438 kts | 250° |
| 2026-04-26 12:54 | 22.30400 | 40.12611 | 40021 ft | 437 kts | 250° |
| 2026-04-26 12:54 | 22.29278 | 40.09622 | 39822 ft | 432 kts | 250° |
| 2026-04-26 12:54 | 22.28152 | 40.06621 | 39580 ft | 430 kts | 250° |
| 2026-04-26 12:54 | 22.26977 | 40.03658 | 39046 ft | 430 kts | 247° |
| 2026-04-26 12:55 | 22.25588 | 40.00778 | 38022 ft | 438 kts | 243° |
| 2026-04-26 12:55 | 22.23938 | 39.97954 | 36883 ft | 447 kts | 239° |
| 2026-04-26 12:55 | 22.22205 | 39.95163 | 36088 ft | 445 kts | 240° |
| 2026-04-26 12:55 | 22.20506 | 39.92393 | 35518 ft | 439 kts | 240° |
| 2026-04-26 12:56 | 22.18823 | 39.89638 | 34571 ft | 440 kts | 240° |
| 2026-04-26 12:56 | 22.17133 | 39.86857 | 32809 ft | 450 kts | 240° |
| 2026-04-26 12:56 | 22.15395 | 39.84005 | 31268 ft | 455 kts | 240° |
| 2026-04-26 12:56 | 22.13665 | 39.81187 | 30301 ft | 446 kts | 240° |
| 2026-04-26 12:57 | 22.11970 | 39.78428 | 29209 ft | 438 kts | 239° |
| 2026-04-26 12:57 | 22.10303 | 39.75712 | 28096 ft | 430 kts | 239° |
| 2026-04-26 12:57 | 22.08667 | 39.73042 | 26956 ft | 424 kts | 239° |
| 2026-04-26 12:58 | 22.05473 | 39.67831 | 24894 ft | 412 kts | 238° |
| 2026-04-26 12:58 | 22.03898 | 39.65262 | 23858 ft | 408 kts | 237° |
| 2026-04-26 12:58 | 22.02334 | 39.62714 | 22579 ft | 406 kts | 237° |
| 2026-04-26 12:58 | 22.00780 | 39.60186 | 21249 ft | 404 kts | 237° |
| 2026-04-26 12:59 | 21.99223 | 39.57656 | 19959 ft | 402 kts | 238° |
| 2026-04-26 12:59 | 21.97684 | 39.55154 | 18752 ft | 400 kts | 238° |
| 2026-04-26 12:59 | 21.96336 | 39.52961 | 17628 ft | 397 kts | 238° |
| 2026-04-26 12:59 | 21.94818 | 39.50484 | 16292 ft | 393 kts | 239° |
| 2026-04-26 13:00 | 21.93501 | 39.47925 | 15029 ft | 388 kts | 245° |
| 2026-04-26 13:00 | 21.92361 | 39.45302 | 13790 ft | 384 kts | 245° |
| 2026-04-26 13:00 | 21.91219 | 39.42713 | 12462 ft | 380 kts | 244° |
| 2026-04-26 13:00 | 21.90082 | 39.40158 | 11189 ft | 375 kts | 244° |
| 2026-04-26 13:01 | 21.88959 | 39.37642 | 10011 ft | 371 kts | 243° |
| 2026-04-26 13:01 | 21.87845 | 39.35152 | 8731 ft | 367 kts | 243° |
| 2026-04-26 13:01 | 21.86738 | 39.32674 | 7467 ft | 363 kts | 243° |
| 2026-04-26 13:01 | 21.85641 | 39.30232 | 6301 ft | 360 kts | 243° |
| 2026-04-26 13:02 | 21.84572 | 39.27836 | 5315 ft | 351 kts | 243° |
| 2026-04-26 13:02 | 21.83437 | 39.25563 | 4578 ft | 333 kts | 230° |
| 2026-04-26 13:02 | 21.81824 | 39.23997 | 4306 ft | 304 kts | 208° |
| 2026-04-26 13:02 | 21.79908 | 39.23280 | 4095 ft | 281 kts | 188° |
| 2026-04-26 13:03 | 21.78192 | 39.23288 | 3938 ft | 266 kts | 171° |
| 2026-04-26 13:03 | 21.76424 | 39.23872 | 3579 ft | 262 kts | 160° |
| 2026-04-26 13:03 | 21.74729 | 39.24564 | 3148 ft | 260 kts | 162° |
| 2026-04-26 13:03 | 21.73041 | 39.25214 | 3019 ft | 262 kts | 161° |
| 2026-04-26 13:04 | 21.71290 | 39.25892 | 3000 ft | 262 kts | 162° |
| 2026-04-26 13:04 | 21.69564 | 39.26568 | 3002 ft | 264 kts | 162° |
| 2026-04-26 13:04 | 21.67833 | 39.27251 | 2999 ft | 265 kts | 161° |
| 2026-04-26 13:04 | 21.66098 | 39.27937 | 3004 ft | 267 kts | 161° |
| 2026-04-26 13:05 | 21.64356 | 39.28624 | 3006 ft | 267 kts | 161° |
| 2026-04-26 13:05 | 21.62638 | 39.29299 | 3002 ft | 266 kts | 162° |
| 2026-04-26 13:05 | 21.60884 | 39.29994 | 3005 ft | 264 kts | 162° |
| 2026-04-26 13:05 | 21.59184 | 39.30662 | 3010 ft | 264 kts | 162° |
| 2026-04-26 13:06 | 21.57482 | 39.31330 | 3005 ft | 257 kts | 162° |
| 2026-04-26 13:06 | 21.55857 | 39.31974 | 3005 ft | 241 kts | 162° |
| 2026-04-26 13:06 | 21.54320 | 39.32580 | 3013 ft | 232 kts | 161° |
| 2026-04-26 13:06 | 21.52811 | 39.33175 | 3015 ft | 231 kts | 162° |
| 2026-04-26 13:07 | 21.51309 | 39.33765 | 3003 ft | 227 kts | 162° |
| 2026-04-26 13:07 | 21.49832 | 39.34342 | 3012 ft | 226 kts | 162° |
| 2026-04-26 13:07 | 21.48341 | 39.34922 | 3020 ft | 230 kts | 162° |
| 2026-04-26 13:07 | 21.46829 | 39.35517 | 3008 ft | 232 kts | 161° |
| 2026-04-26 13:08 | 21.45308 | 39.36115 | 3026 ft | 233 kts | 161° |
| 2026-04-26 13:08 | 21.43792 | 39.36710 | 3017 ft | 231 kts | 162° |
| 2026-04-26 13:08 | 21.42324 | 39.37279 | 3012 ft | 216 kts | 161° |
| 2026-04-26 13:08 | 21.40969 | 39.37819 | 3017 ft | 198 kts | 161° |
| 2026-04-26 13:09 | 21.39793 | 39.38288 | 3026 ft | 165 kts | 162° |
| 2026-04-26 13:09 | 21.38747 | 39.38707 | 3030 ft | 159 kts | 162° |
| 2026-04-26 13:09 | 21.37697 | 39.39110 | 3036 ft | 161 kts | 163° |
| 2026-04-26 13:09 | 21.36644 | 39.39512 | 3015 ft | 160 kts | 162° |
| 2026-04-26 13:10 | 21.35560 | 39.39818 | 3023 ft | 162 kts | 184° |
| 2026-04-26 13:10 | 21.34541 | 39.39346 | 3027 ft | 166 kts | 225° |
| 2026-04-26 13:10 | 21.34056 | 39.38244 | 3039 ft | 169 kts | 251° |
| 2026-04-26 13:10 | 21.33699 | 39.37049 | 3023 ft | 162 kts | 246° |
| 2026-04-26 13:11 | 21.33295 | 39.35926 | 3022 ft | 163 kts | 246° |
| 2026-04-26 13:11 | 21.32885 | 39.34797 | 3023 ft | 162 kts | 245° |
| 2026-04-26 13:11 | 21.32479 | 39.33662 | 3016 ft | 164 kts | 246° |
| 2026-04-26 13:11 | 21.32080 | 39.32536 | 3029 ft | 165 kts | 246° |
| 2026-04-26 13:12 | 21.31872 | 39.31739 | 3010 ft | 166 kts | 262° |
| 2026-04-26 13:12 | 21.32419 | 39.30215 | 3022 ft | 175 kts | 311° |
| 2026-04-26 13:12 | 21.33079 | 39.29677 | 3021 ft | 180 kts | 327° |
| 2026-04-26 13:12 | 21.34203 | 39.29102 | 3011 ft | 178 kts | 335° |
| 2026-04-26 13:13 | 21.35367 | 39.28618 | 3019 ft | 178 kts | 336° |
| 2026-04-26 13:13 | 21.36527 | 39.28161 | 3016 ft | 177 kts | 337° |
| 2026-04-26 13:13 | 21.37693 | 39.27707 | 3016 ft | 179 kts | 338° |
| 2026-04-26 13:13 | 21.38861 | 39.27244 | 3012 ft | 178 kts | 337° |
| 2026-04-26 13:14 | 21.39993 | 39.26801 | 3009 ft | 178 kts | 337° |
| 2026-04-26 13:14 | 21.41157 | 39.26340 | 3012 ft | 178 kts | 337° |
| 2026-04-26 13:14 | 21.42327 | 39.25876 | 3008 ft | 180 kts | 337° |
| 2026-04-26 13:14 | 21.43483 | 39.25419 | 3007 ft | 178 kts | 336° |
| 2026-04-26 13:15 | 21.44665 | 39.24958 | 3010 ft | 177 kts | 337° |
| 2026-04-26 13:15 | 21.45826 | 39.24505 | 3008 ft | 178 kts | 337° |
| 2026-04-26 13:15 | 21.46991 | 39.24044 | 3011 ft | 178 kts | 338° |
| 2026-04-26 13:15 | 21.48158 | 39.23585 | 3002 ft | 179 kts | 337° |
| 2026-04-26 13:16 | 21.49314 | 39.23123 | 3007 ft | 177 kts | 336° |
| 2026-04-26 13:16 | 21.50473 | 39.22674 | 3004 ft | 176 kts | 338° |
| 2026-04-26 13:16 | 21.51627 | 39.22211 | 2925 ft | 177 kts | 336° |
| 2026-04-26 13:16 | 21.52774 | 39.21760 | 2695 ft | 173 kts | 338° |
| 2026-04-26 13:17 | 21.54886 | 39.20940 | 2286 ft | 166 kts | 338° |
| 2026-04-26 13:17 | 21.55936 | 39.20509 | 2080 ft | 153 kts | 336° |
| 2026-04-26 13:18 | 21.57797 | 39.19797 | 1718 ft | 136 kts | 337° |
| 2026-04-26 13:18 | 21.58663 | 39.19436 | 1538 ft | 132 kts | 338° |
| 2026-04-26 13:18 | 21.60377 | 39.18757 | 1217 ft | 133 kts | 336° |
| 2026-04-26 13:19 | 21.61276 | 39.18404 | 1037 ft | 139 kts | 337° |
| 2026-04-26 13:19 | 21.62171 | 39.18056 | 855 ft | 134 kts | 337° |
| 2026-04-26 13:19 | 21.63017 | 39.17699 | 635 ft | 131 kts | 338° |
| 2026-04-26 13:19 | 21.63857 | 39.17375 | 476 ft | 129 kts | 336° |
| 2026-04-26 13:20 | 21.64715 | 39.17035 | 362 ft | 134 kts | 337° |
| 2026-04-26 13:20 | 21.65608 | 39.16686 | 168 ft | 136 kts | 336° |
| 2026-04-26 13:20 | 21.66489 | 39.16338 | 44 ft | 124 kts | 340° |
| 2026-04-26 13:20 | 21.67124 | 39.16088 | 40 ft | 68 kts | 341° |
| 2026-04-26 13:21 | 21.67486 | 39.15951 | 39 ft | 46 kts | 340° |
| 2026-04-26 13:21 | 21.67668 | 39.15879 | 39 ft | 38 kts | 340° |
| 2026-04-26 13:21 | 21.67956 | 39.15765 | 38 ft | 29 kts | 340° |
| 2026-04-26 13:21 | 21.68134 | 39.15721 | 38 ft | 24 kts | 1° |
| 2026-04-26 13:22 | 21.68274 | 39.15745 | 36 ft | 16 kts | 9° |
| 2026-04-26 13:22 | 21.68312 | 39.15810 | 37 ft | 7 kts | 121° |
| 2026-04-26 13:22 | 21.68251 | 39.15846 | 37 ft | 13 kts | 161° |
| 2026-04-26 13:22 | 21.68170 | 39.15876 | 38 ft | 7 kts | 159° |
| 2026-04-26 13:23 | 21.68107 | 39.15901 | 38 ft | 12 kts | 159° |
| 2026-04-26 13:23 | 21.68072 | 39.15916 | 38 ft | 3 kts | 159° |
| 2026-04-26 13:23 | 21.68030 | 39.15933 | 38 ft | 9 kts | 159° |
| 2026-04-26 13:23 | 21.67951 | 39.15965 | 38 ft | 15 kts | 159° |
| 2026-04-26 13:24 | 21.67842 | 39.16009 | 39 ft | 19 kts | 160° |
| 2026-04-26 13:24 | 21.67710 | 39.16061 | 38 ft | 21 kts | 159° |
| 2026-04-26 13:24 | 21.67627 | 39.16148 | 39 ft | 17 kts | 87° |
| 2026-04-26 13:24 | 21.67664 | 39.16280 | 40 ft | 21 kts | 72° |
| 2026-04-26 13:25 | 21.67712 | 39.16435 | 42 ft | 25 kts | 69° |
| 2026-04-26 13:25 | 21.67756 | 39.16588 | 44 ft | 19 kts | 104° |
| 2026-04-26 13:25 | 21.67676 | 39.16651 | 45 ft | 17 kts | 160° |
| 2026-04-26 13:25 | 21.67555 | 39.16697 | 46 ft | 20 kts | 161° |
| 2026-04-26 13:26 | 21.67473 | 39.16725 | 46 ft | 2 kts | 164° |
| 2026-04-26 13:26 | 21.67432 | 39.16737 | 46 ft | 9 kts | 165° |
| 2026-04-26 13:26 | 21.67354 | 39.16760 | 46 ft | 14 kts | 165° |
| 2026-04-26 13:26 | 21.67250 | 39.16790 | 46 ft | 16 kts | 155° |
| 2026-04-26 13:27 | 21.67212 | 39.16860 | 44 ft | 7 kts | 139° |
| 2026-04-26 13:27 | 21.67155 | 39.16882 | 44 ft | 9 kts | 172° |
| 2026-04-26 13:27 | 21.67146 | 39.16883 | 46 ft | 0 kts | 171° |